sensor_id;sensor_type;location;lat;lon;timestamp;P1;durP1;ratioP1;P2;durP2;ratioP2
19406;SDS011;9839;53.364;-1.204;2023-11-22T00:00:02;8.10;;;3.20;;
19406;SDS011;9839;53.364;-1.204;2023-11-22T00:02:28;14.83;;;4.10;;
19406;SDS011;9839;53.364;-1.204;2023-11-22T00:04:54;10.50;;;4.30;;
19406;SDS011;9839;53.364;-1.204;2023-11-22T00:07:20;12.70;;;3.53;;
19406;SDS011;9839;53.364;-1.204;2023-11-22T00:09:46;7.17;;;3.00;;
19406;SDS011;9839;53.364;-1.204;2023-11-22T00:12:12;10.47;;;4.50;;
19406;SDS011;9839;53.364;-1.204;2023-11-22T00:14:38;10.13;;;3.83;;
19406;SDS011;9839;53.364;-1.204;2023-11-22T00:17:04;6.90;;;3.10;;
19406;SDS011;9839;53.364;-1.204;2023-11-22T00:19:30;6.87;;;3.13;;
19406;SDS011;9839;53.364;-1.204;2023-11-22T00:21:55;6.90;;;2.80;;
19406;SDS011;9839;53.364;-1.204;2023-11-22T00:24:21;10.17;;;3.47;;
19406;SDS011;9839;53.364;-1.204;2023-11-22T00:26:46;6.33;;;3.20;;
19406;SDS011;9839;53.364;-1.204;2023-11-22T00:29:12;8.80;;;3.17;;
19406;SDS011;9839;53.364;-1.204;2023-11-22T00:31:37;13.53;;;3.60;;
19406;SDS011;9839;53.364;-1.204;2023-11-22T00:34:03;10.37;;;3.33;;
19406;SDS011;9839;53.364;-1.204;2023-11-22T00:36:28;13.93;;;4.23;;
19406;SDS011;9839;53.364;-1.204;2023-11-22T00:38:54;11.30;;;3.23;;
19406;SDS011;9839;53.364;-1.204;2023-11-22T00:41:19;10.50;;;3.57;;
19406;SDS011;9839;53.364;-1.204;2023-11-22T00:43:45;6.33;;;3.23;;
19406;SDS011;9839;53.364;-1.204;2023-11-22T00:46:11;7.87;;;3.63;;
19406;SDS011;9839;53.364;-1.204;2023-11-22T00:48:36;13.20;;;4.33;;
19406;SDS011;9839;53.364;-1.204;2023-11-22T00:51:03;7.60;;;3.57;;
19406;SDS011;9839;53.364;-1.204;2023-11-22T00:53:34;6.97;;;2.90;;
19406;SDS011;9839;53.364;-1.204;2023-11-22T00:56:01;6.07;;;3.13;;
19406;SDS011;9839;53.364;-1.204;2023-11-22T00:58:27;10.50;;;3.40;;
19406;SDS011;9839;53.364;-1.204;2023-11-22T01:00:52;8.10;;;3.40;;
19406;SDS011;9839;53.364;-1.204;2023-11-22T01:03:18;9.97;;;3.50;;
19406;SDS011;9839;53.364;-1.204;2023-11-22T01:05:44;4.60;;;2.97;;
19406;SDS011;9839;53.364;-1.204;2023-11-22T01:08:11;6.53;;;2.93;;
19406;SDS011;9839;53.364;-1.204;2023-11-22T01:10:38;7.43;;;3.50;;
19406;SDS011;9839;53.364;-1.204;2023-11-22T01:13:04;13.50;;;3.57;;
19406;SDS011;9839;53.364;-1.204;2023-11-22T01:15:29;9.53;;;2.93;;
19406;SDS011;9839;53.364;-1.204;2023-11-22T01:17:54;10.37;;;3.43;;
19406;SDS011;9839;53.364;-1.204;2023-11-22T01:20:21;7.37;;;3.53;;
19406;SDS011;9839;53.364;-1.204;2023-11-22T01:22:48;10.37;;;4.27;;
19406;SDS011;9839;53.364;-1.204;2023-11-22T01:25:14;11.97;;;3.80;;
19406;SDS011;9839;53.364;-1.204;2023-11-22T01:27:39;7.00;;;3.50;;
19406;SDS011;9839;53.364;-1.204;2023-11-22T01:30:06;10.00;;;3.70;;
19406;SDS011;9839;53.364;-1.204;2023-11-22T01:32:35;8.87;;;3.57;;
19406;SDS011;9839;53.364;-1.204;2023-11-22T01:35:01;8.37;;;3.97;;
19406;SDS011;9839;53.364;-1.204;2023-11-22T01:37:26;8.20;;;3.27;;
19406;SDS011;9839;53.364;-1.204;2023-11-22T01:39:52;7.27;;;3.90;;
19406;SDS011;9839;53.364;-1.204;2023-11-22T01:42:19;6.50;;;3.23;;
19406;SDS011;9839;53.364;-1.204;2023-11-22T01:44:45;12.63;;;4.27;;
19406;SDS011;9839;53.364;-1.204;2023-11-22T01:47:13;8.83;;;3.83;;
19406;SDS011;9839;53.364;-1.204;2023-11-22T01:49:39;9.13;;;4.67;;
19406;SDS011;9839;53.364;-1.204;2023-11-22T01:52:05;9.10;;;3.40;;
19406;SDS011;9839;53.364;-1.204;2023-11-22T01:54:30;11.20;;;4.27;;
19406;SDS011;9839;53.364;-1.204;2023-11-22T01:56:56;10.70;;;3.57;;
19406;SDS011;9839;53.364;-1.204;2023-11-22T01:59:22;10.23;;;4.23;;
19406;SDS011;9839;53.364;-1.204;2023-11-22T02:01:48;7.70;;;4.20;;
19406;SDS011;9839;53.364;-1.204;2023-11-22T02:04:14;8.27;;;4.23;;
19406;SDS011;9839;53.364;-1.204;2023-11-22T02:06:40;11.03;;;4.23;;
19406;SDS011;9839;53.364;-1.204;2023-11-22T02:09:06;7.73;;;3.83;;
19406;SDS011;9839;53.364;-1.204;2023-11-22T02:11:32;10.40;;;4.23;;
19406;SDS011;9839;53.364;-1.204;2023-11-22T02:13:58;8.67;;;4.10;;
19406;SDS011;9839;53.364;-1.204;2023-11-22T02:16:24;9.63;;;4.10;;
19406;SDS011;9839;53.364;-1.204;2023-11-22T02:18:49;11.40;;;4.60;;
19406;SDS011;9839;53.364;-1.204;2023-11-22T02:21:18;11.43;;;4.17;;
19406;SDS011;9839;53.364;-1.204;2023-11-22T02:23:43;9.97;;;4.50;;
19406;SDS011;9839;53.364;-1.204;2023-11-22T02:26:09;11.63;;;5.07;;
19406;SDS011;9839;53.364;-1.204;2023-11-22T02:28:34;8.30;;;4.80;;
19406;SDS011;9839;53.364;-1.204;2023-11-22T02:31:00;9.23;;;4.83;;
19406;SDS011;9839;53.364;-1.204;2023-11-22T02:33:25;7.43;;;4.63;;
19406;SDS011;9839;53.364;-1.204;2023-11-22T02:35:51;8.53;;;4.50;;
19406;SDS011;9839;53.364;-1.204;2023-11-22T02:38:16;9.63;;;4.60;;
19406;SDS011;9839;53.364;-1.204;2023-11-22T02:40:43;9.67;;;4.43;;
19406;SDS011;9839;53.364;-1.204;2023-11-22T02:43:09;11.97;;;4.97;;
19406;SDS011;9839;53.364;-1.204;2023-11-22T02:45:54;9.20;;;4.67;;
19406;SDS011;9839;53.364;-1.204;2023-11-22T02:48:19;11.77;;;4.87;;
19406;SDS011;9839;53.364;-1.204;2023-11-22T02:50:45;9.63;;;5.23;;
19406;SDS011;9839;53.364;-1.204;2023-11-22T02:53:10;10.63;;;4.53;;
19406;SDS011;9839;53.364;-1.204;2023-11-22T02:55:36;11.33;;;5.07;;
19406;SDS011;9839;53.364;-1.204;2023-11-22T02:58:01;10.37;;;5.37;;
19406;SDS011;9839;53.364;-1.204;2023-11-22T03:00:27;10.77;;;4.90;;
19406;SDS011;9839;53.364;-1.204;2023-11-22T03:02:54;9.03;;;5.33;;
19406;SDS011;9839;53.364;-1.204;2023-11-22T03:05:21;13.13;;;5.93;;
19406;SDS011;9839;53.364;-1.204;2023-11-22T03:07:47;11.63;;;5.50;;
19406;SDS011;9839;53.364;-1.204;2023-11-22T03:10:12;12.27;;;6.30;;
19406;SDS011;9839;53.364;-1.204;2023-11-22T03:12:38;14.33;;;5.67;;
19406;SDS011;9839;53.364;-1.204;2023-11-22T03:15:04;10.30;;;5.93;;
19406;SDS011;9839;53.364;-1.204;2023-11-22T03:17:30;11.70;;;5.63;;
19406;SDS011;9839;53.364;-1.204;2023-11-22T03:19:56;12.63;;;6.10;;
19406;SDS011;9839;53.364;-1.204;2023-11-22T03:22:23;11.70;;;5.73;;
19406;SDS011;9839;53.364;-1.204;2023-11-22T03:24:49;11.07;;;5.80;;
19406;SDS011;9839;53.364;-1.204;2023-11-22T03:27:14;13.13;;;6.33;;
19406;SDS011;9839;53.364;-1.204;2023-11-22T03:29:40;14.83;;;6.03;;
19406;SDS011;9839;53.364;-1.204;2023-11-22T03:32:06;11.03;;;5.40;;
19406;SDS011;9839;53.364;-1.204;2023-11-22T03:34:31;11.83;;;5.73;;
19406;SDS011;9839;53.364;-1.204;2023-11-22T03:36:57;14.93;;;6.53;;
19406;SDS011;9839;53.364;-1.204;2023-11-22T03:39:22;11.13;;;5.23;;
19406;SDS011;9839;53.364;-1.204;2023-11-22T03:41:48;12.33;;;5.47;;
19406;SDS011;9839;53.364;-1.204;2023-11-22T03:44:13;12.77;;;5.60;;
19406;SDS011;9839;53.364;-1.204;2023-11-22T03:46:39;9.60;;;5.13;;
19406;SDS011;9839;53.364;-1.204;2023-11-22T03:49:05;12.10;;;6.27;;
19406;SDS011;9839;53.364;-1.204;2023-11-22T03:51:34;13.90;;;6.10;;
19406;SDS011;9839;53.364;-1.204;2023-11-22T03:54:00;9.03;;;5.23;;
19406;SDS011;9839;53.364;-1.204;2023-11-22T03:56:27;15.13;;;6.13;;
19406;SDS011;9839;53.364;-1.204;2023-11-22T03:58:53;13.60;;;5.03;;
19406;SDS011;9839;53.364;-1.204;2023-11-22T04:01:18;10.20;;;5.70;;
19406;SDS011;9839;53.364;-1.204;2023-11-22T04:03:45;10.97;;;5.90;;
19406;SDS011;9839;53.364;-1.204;2023-11-22T04:06:16;10.13;;;5.47;;
19406;SDS011;9839;53.364;-1.204;2023-11-22T04:08:45;9.80;;;4.63;;
19406;SDS011;9839;53.364;-1.204;2023-11-22T04:11:11;9.83;;;4.97;;
19406;SDS011;9839;53.364;-1.204;2023-11-22T04:13:37;9.10;;;5.00;;
19406;SDS011;9839;53.364;-1.204;2023-11-22T04:16:03;8.00;;;4.27;;
19406;SDS011;9839;53.364;-1.204;2023-11-22T04:18:30;13.13;;;4.70;;
19406;SDS011;9839;53.364;-1.204;2023-11-22T04:20:55;8.97;;;4.03;;
19406;SDS011;9839;53.364;-1.204;2023-11-22T04:23:23;8.10;;;4.20;;
19406;SDS011;9839;53.364;-1.204;2023-11-22T04:25:48;11.03;;;3.63;;
19406;SDS011;9839;53.364;-1.204;2023-11-22T04:28:14;7.73;;;3.50;;
19406;SDS011;9839;53.364;-1.204;2023-11-22T04:30:40;8.40;;;3.17;;
19406;SDS011;9839;53.364;-1.204;2023-11-22T04:33:07;6.10;;;2.90;;
19406;SDS011;9839;53.364;-1.204;2023-11-22T04:35:32;4.97;;;2.80;;
19406;SDS011;9839;53.364;-1.204;2023-11-22T04:38:02;7.10;;;3.00;;
19406;SDS011;9839;53.364;-1.204;2023-11-22T04:40:29;8.60;;;2.77;;
19406;SDS011;9839;53.364;-1.204;2023-11-22T04:42:55;6.40;;;2.20;;
19406;SDS011;9839;53.364;-1.204;2023-11-22T04:45:20;3.67;;;1.67;;
19406;SDS011;9839;53.364;-1.204;2023-11-22T04:47:46;7.10;;;2.17;;
19406;SDS011;9839;53.364;-1.204;2023-11-22T04:50:11;4.50;;;1.80;;
19406;SDS011;9839;53.364;-1.204;2023-11-22T04:52:37;4.47;;;1.70;;
19406;SDS011;9839;53.364;-1.204;2023-11-22T04:55:03;5.33;;;1.83;;
19406;SDS011;9839;53.364;-1.204;2023-11-22T04:57:29;5.63;;;2.10;;
19406;SDS011;9839;53.364;-1.204;2023-11-22T04:59:55;3.30;;;1.60;;
19406;SDS011;9839;53.364;-1.204;2023-11-22T05:02:20;9.30;;;2.17;;
19406;SDS011;9839;53.364;-1.204;2023-11-22T05:04:46;2.60;;;1.80;;
19406;SDS011;9839;53.364;-1.204;2023-11-22T05:07:14;5.03;;;1.73;;
19406;SDS011;9839;53.364;-1.204;2023-11-22T05:09:40;6.37;;;2.10;;
19406;SDS011;9839;53.364;-1.204;2023-11-22T05:12:06;3.47;;;1.70;;
19406;SDS011;9839;53.364;-1.204;2023-11-22T05:14:31;7.30;;;1.80;;
19406;SDS011;9839;53.364;-1.204;2023-11-22T05:16:57;4.60;;;1.80;;
19406;SDS011;9839;53.364;-1.204;2023-11-22T05:19:23;9.50;;;2.07;;
19406;SDS011;9839;53.364;-1.204;2023-11-22T05:21:48;2.93;;;1.50;;
19406;SDS011;9839;53.364;-1.204;2023-11-22T05:24:13;5.37;;;1.43;;
19406;SDS011;9839;53.364;-1.204;2023-11-22T05:26:40;4.27;;;1.47;;
19406;SDS011;9839;53.364;-1.204;2023-11-22T05:29:06;5.73;;;1.50;;
19406;SDS011;9839;53.364;-1.204;2023-11-22T05:31:32;4.63;;;1.60;;
19406;SDS011;9839;53.364;-1.204;2023-11-22T05:33:57;7.93;;;1.87;;
19406;SDS011;9839;53.364;-1.204;2023-11-22T05:36:23;3.87;;;1.63;;
19406;SDS011;9839;53.364;-1.204;2023-11-22T05:38:48;5.17;;;1.67;;
19406;SDS011;9839;53.364;-1.204;2023-11-22T05:41:14;6.13;;;1.60;;
19406;SDS011;9839;53.364;-1.204;2023-11-22T05:43:40;3.67;;;1.30;;
19406;SDS011;9839;53.364;-1.204;2023-11-22T05:46:07;5.00;;;1.63;;
19406;SDS011;9839;53.364;-1.204;2023-11-22T05:48:33;4.80;;;1.80;;
19406;SDS011;9839;53.364;-1.204;2023-11-22T05:50:59;2.90;;;1.30;;
19406;SDS011;9839;53.364;-1.204;2023-11-22T05:53:25;7.13;;;1.70;;
19406;SDS011;9839;53.364;-1.204;2023-11-22T05:55:50;4.60;;;1.63;;
19406;SDS011;9839;53.364;-1.204;2023-11-22T05:58:17;4.27;;;1.77;;
19406;SDS011;9839;53.364;-1.204;2023-11-22T06:00:43;3.57;;;1.43;;
19406;SDS011;9839;53.364;-1.204;2023-11-22T06:03:10;4.40;;;1.73;;
19406;SDS011;9839;53.364;-1.204;2023-11-22T06:05:36;6.07;;;2.00;;
19406;SDS011;9839;53.364;-1.204;2023-11-22T06:08:02;2.70;;;1.70;;
19406;SDS011;9839;53.364;-1.204;2023-11-22T06:10:27;3.37;;;1.60;;
19406;SDS011;9839;53.364;-1.204;2023-11-22T06:12:53;4.90;;;1.60;;
19406;SDS011;9839;53.364;-1.204;2023-11-22T06:15:18;4.30;;;1.87;;
19406;SDS011;9839;53.364;-1.204;2023-11-22T06:17:46;4.57;;;1.70;;
19406;SDS011;9839;53.364;-1.204;2023-11-22T06:20:12;5.47;;;1.53;;
19406;SDS011;9839;53.364;-1.204;2023-11-22T06:22:38;6.37;;;1.70;;
19406;SDS011;9839;53.364;-1.204;2023-11-22T06:25:07;4.77;;;1.67;;
19406;SDS011;9839;53.364;-1.204;2023-11-22T06:27:33;4.23;;;1.77;;
19406;SDS011;9839;53.364;-1.204;2023-11-22T06:29:58;6.80;;;1.47;;
19406;SDS011;9839;53.364;-1.204;2023-11-22T06:32:24;4.57;;;1.43;;
19406;SDS011;9839;53.364;-1.204;2023-11-22T06:34:49;4.97;;;1.93;;
19406;SDS011;9839;53.364;-1.204;2023-11-22T06:37:14;4.33;;;1.20;;
19406;SDS011;9839;53.364;-1.204;2023-11-22T06:39:40;3.17;;;1.50;;
19406;SDS011;9839;53.364;-1.204;2023-11-22T06:42:05;8.97;;;1.43;;
19406;SDS011;9839;53.364;-1.204;2023-11-22T06:44:31;3.80;;;1.00;;
19406;SDS011;9839;53.364;-1.204;2023-11-22T06:46:57;5.90;;;0.90;;
19406;SDS011;9839;53.364;-1.204;2023-11-22T06:49:22;2.83;;;1.10;;
19406;SDS011;9839;53.364;-1.204;2023-11-22T06:51:48;5.27;;;0.80;;
19406;SDS011;9839;53.364;-1.204;2023-11-22T06:54:13;3.03;;;0.53;;
19406;SDS011;9839;53.364;-1.204;2023-11-22T06:56:39;4.20;;;0.80;;
19406;SDS011;9839;53.364;-1.204;2023-11-22T06:59:04;2.90;;;0.80;;
19406;SDS011;9839;53.364;-1.204;2023-11-22T07:01:30;6.13;;;0.80;;
19406;SDS011;9839;53.364;-1.204;2023-11-22T07:03:55;2.43;;;0.83;;
19406;SDS011;9839;53.364;-1.204;2023-11-22T07:06:21;2.30;;;0.70;;
19406;SDS011;9839;53.364;-1.204;2023-11-22T07:08:47;3.53;;;0.60;;
19406;SDS011;9839;53.364;-1.204;2023-11-22T07:11:20;2.27;;;0.53;;
19406;SDS011;9839;53.364;-1.204;2023-11-22T07:13:48;4.00;;;0.70;;
19406;SDS011;9839;53.364;-1.204;2023-11-22T07:16:13;5.00;;;0.80;;
19406;SDS011;9839;53.364;-1.204;2023-11-22T07:18:40;4.93;;;0.90;;
19406;SDS011;9839;53.364;-1.204;2023-11-22T07:21:05;0.90;;;0.70;;
19406;SDS011;9839;53.364;-1.204;2023-11-22T07:23:31;2.83;;;0.80;;
19406;SDS011;9839;53.364;-1.204;2023-11-22T07:25:56;2.27;;;0.80;;
19406;SDS011;9839;53.364;-1.204;2023-11-22T07:28:22;2.00;;;0.60;;
19406;SDS011;9839;53.364;-1.204;2023-11-22T07:30:47;3.97;;;0.80;;
19406;SDS011;9839;53.364;-1.204;2023-11-22T07:33:14;4.00;;;1.00;;
19406;SDS011;9839;53.364;-1.204;2023-11-22T07:35:40;2.90;;;0.70;;
19406;SDS011;9839;53.364;-1.204;2023-11-22T07:38:06;3.40;;;0.80;;
19406;SDS011;9839;53.364;-1.204;2023-11-22T07:40:33;4.57;;;0.83;;
19406;SDS011;9839;53.364;-1.204;2023-11-22T07:42:59;3.80;;;1.13;;
19406;SDS011;9839;53.364;-1.204;2023-11-22T07:45:27;5.57;;;1.20;;
19406;SDS011;9839;53.364;-1.204;2023-11-22T07:47:53;3.43;;;0.87;;
19406;SDS011;9839;53.364;-1.204;2023-11-22T07:50:18;4.40;;;0.77;;
19406;SDS011;9839;53.364;-1.204;2023-11-22T07:52:45;3.03;;;0.77;;
19406;SDS011;9839;53.364;-1.204;2023-11-22T07:55:11;3.20;;;0.57;;
19406;SDS011;9839;53.364;-1.204;2023-11-22T07:57:37;3.87;;;1.57;;
19406;SDS011;9839;53.364;-1.204;2023-11-22T08:00:06;2.17;;;0.83;;
19406;SDS011;9839;53.364;-1.204;2023-11-22T08:02:33;2.83;;;0.80;;
19406;SDS011;9839;53.364;-1.204;2023-11-22T08:04:59;1.97;;;0.83;;
19406;SDS011;9839;53.364;-1.204;2023-11-22T08:07:27;7.93;;;1.13;;
19406;SDS011;9839;53.364;-1.204;2023-11-22T08:09:53;2.43;;;0.90;;
19406;SDS011;9839;53.364;-1.204;2023-11-22T08:12:19;2.60;;;1.00;;
19406;SDS011;9839;53.364;-1.204;2023-11-22T08:14:44;6.00;;;1.00;;
19406;SDS011;9839;53.364;-1.204;2023-11-22T08:17:11;6.17;;;1.23;;
19406;SDS011;9839;53.364;-1.204;2023-11-22T08:19:37;5.20;;;0.77;;
19406;SDS011;9839;53.364;-1.204;2023-11-22T08:22:05;2.17;;;0.97;;
19406;SDS011;9839;53.364;-1.204;2023-11-22T08:24:31;4.30;;;0.90;;
19406;SDS011;9839;53.364;-1.204;2023-11-22T08:26:57;1.93;;;0.90;;
19406;SDS011;9839;53.364;-1.204;2023-11-22T08:29:23;1.70;;;1.00;;
19406;SDS011;9839;53.364;-1.204;2023-11-22T08:31:49;6.30;;;1.10;;
19406;SDS011;9839;53.364;-1.204;2023-11-22T08:34:16;3.07;;;0.63;;
19406;SDS011;9839;53.364;-1.204;2023-11-22T08:36:42;1.87;;;0.80;;
19406;SDS011;9839;53.364;-1.204;2023-11-22T08:39:07;5.17;;;1.03;;
19406;SDS011;9839;53.364;-1.204;2023-11-22T08:41:33;2.80;;;0.80;;
19406;SDS011;9839;53.364;-1.204;2023-11-22T08:44:00;2.87;;;0.83;;
19406;SDS011;9839;53.364;-1.204;2023-11-22T08:46:26;4.60;;;0.93;;
19406;SDS011;9839;53.364;-1.204;2023-11-22T08:48:52;3.00;;;1.00;;
19406;SDS011;9839;53.364;-1.204;2023-11-22T08:51:17;8.27;;;1.03;;
19406;SDS011;9839;53.364;-1.204;2023-11-22T08:53:43;4.23;;;0.87;;
19406;SDS011;9839;53.364;-1.204;2023-11-22T08:56:12;7.20;;;1.10;;
19406;SDS011;9839;53.364;-1.204;2023-11-22T08:58:38;1.30;;;1.13;;
19406;SDS011;9839;53.364;-1.204;2023-11-22T09:01:04;5.53;;;1.10;;
19406;SDS011;9839;53.364;-1.204;2023-11-22T09:03:30;2.37;;;0.90;;
19406;SDS011;9839;53.364;-1.204;2023-11-22T09:05:56;3.73;;;0.90;;
19406;SDS011;9839;53.364;-1.204;2023-11-22T09:08:22;2.67;;;0.83;;
19406;SDS011;9839;53.364;-1.204;2023-11-22T09:10:48;2.10;;;0.83;;
19406;SDS011;9839;53.364;-1.204;2023-11-22T09:13:13;4.67;;;1.60;;
19406;SDS011;9839;53.364;-1.204;2023-11-22T09:15:41;1.47;;;0.73;;
19406;SDS011;9839;53.364;-1.204;2023-11-22T09:18:09;3.77;;;1.10;;
19406;SDS011;9839;53.364;-1.204;2023-11-22T09:20:35;4.30;;;1.07;;
19406;SDS011;9839;53.364;-1.204;2023-11-22T09:23:01;3.73;;;1.00;;
19406;SDS011;9839;53.364;-1.204;2023-11-22T09:25:26;2.00;;;1.10;;
19406;SDS011;9839;53.364;-1.204;2023-11-22T09:27:56;3.80;;;1.10;;
19406;SDS011;9839;53.364;-1.204;2023-11-22T09:30:25;2.30;;;0.80;;
19406;SDS011;9839;53.364;-1.204;2023-11-22T09:32:58;5.43;;;0.83;;
19406;SDS011;9839;53.364;-1.204;2023-11-22T09:35:24;4.13;;;1.13;;
19406;SDS011;9839;53.364;-1.204;2023-11-22T09:37:50;3.27;;;0.90;;
19406;SDS011;9839;53.364;-1.204;2023-11-22T09:40:17;3.50;;;1.10;;
19406;SDS011;9839;53.364;-1.204;2023-11-22T09:42:43;2.73;;;1.13;;
19406;SDS011;9839;53.364;-1.204;2023-11-22T09:45:11;4.33;;;0.90;;
19406;SDS011;9839;53.364;-1.204;2023-11-22T09:47:37;1.83;;;1.00;;
19406;SDS011;9839;53.364;-1.204;2023-11-22T09:50:03;2.73;;;1.10;;
19406;SDS011;9839;53.364;-1.204;2023-11-22T09:52:30;4.53;;;1.10;;
19406;SDS011;9839;53.364;-1.204;2023-11-22T09:54:59;2.73;;;1.10;;
19406;SDS011;9839;53.364;-1.204;2023-11-22T09:57:25;2.07;;;1.00;;
19406;SDS011;9839;53.364;-1.204;2023-11-22T09:59:54;2.53;;;0.93;;
19406;SDS011;9839;53.364;-1.204;2023-11-22T10:02:21;3.30;;;1.07;;
19406;SDS011;9839;53.364;-1.204;2023-11-22T10:04:52;3.93;;;1.40;;
19406;SDS011;9839;53.364;-1.204;2023-11-22T10:07:18;6.37;;;1.10;;
19406;SDS011;9839;53.364;-1.204;2023-11-22T10:09:43;3.70;;;1.00;;
19406;SDS011;9839;53.364;-1.204;2023-11-22T10:12:09;6.80;;;1.10;;
19406;SDS011;9839;53.364;-1.204;2023-11-22T10:14:37;4.50;;;1.20;;
19406;SDS011;9839;53.364;-1.204;2023-11-22T10:17:03;1.23;;;1.13;;
19406;SDS011;9839;53.364;-1.204;2023-11-22T10:19:30;2.43;;;1.30;;
19406;SDS011;9839;53.364;-1.204;2023-11-22T10:22:06;3.27;;;1.30;;
19406;SDS011;9839;53.364;-1.204;2023-11-22T10:24:32;5.00;;;1.20;;
19406;SDS011;9839;53.364;-1.204;2023-11-22T10:26:59;2.33;;;1.07;;
19406;SDS011;9839;53.364;-1.204;2023-11-22T10:29:25;3.70;;;1.20;;
19406;SDS011;9839;53.364;-1.204;2023-11-22T10:31:51;3.83;;;0.90;;
19406;SDS011;9839;53.364;-1.204;2023-11-22T10:34:19;1.30;;;1.20;;
19406;SDS011;9839;53.364;-1.204;2023-11-22T10:36:45;7.37;;;1.27;;
19406;SDS011;9839;53.364;-1.204;2023-11-22T10:39:12;3.37;;;1.50;;
19406;SDS011;9839;53.364;-1.204;2023-11-22T10:41:41;4.07;;;2.10;;
19406;SDS011;9839;53.364;-1.204;2023-11-22T10:44:09;3.67;;;2.00;;
19406;SDS011;9839;53.364;-1.204;2023-11-22T10:46:35;7.63;;;2.40;;
19406;SDS011;9839;53.364;-1.204;2023-11-22T10:49:04;2.17;;;1.73;;
19406;SDS011;9839;53.364;-1.204;2023-11-22T10:51:30;7.07;;;1.93;;
19406;SDS011;9839;53.364;-1.204;2023-11-22T10:53:57;3.40;;;1.57;;
19406;SDS011;9839;53.364;-1.204;2023-11-22T10:56:23;2.83;;;1.70;;
19406;SDS011;9839;53.364;-1.204;2023-11-22T10:58:51;4.03;;;1.87;;
19406;SDS011;9839;53.364;-1.204;2023-11-22T11:01:18;3.47;;;1.47;;
19406;SDS011;9839;53.364;-1.204;2023-11-22T11:03:55;5.03;;;1.50;;
19406;SDS011;9839;53.364;-1.204;2023-11-22T11:06:25;6.37;;;1.90;;
19406;SDS011;9839;53.364;-1.204;2023-11-22T11:08:57;4.10;;;1.67;;
19406;SDS011;9839;53.364;-1.204;2023-11-22T11:11:25;2.20;;;0.60;;
19406;SDS011;9839;53.364;-1.204;2023-11-22T11:13:51;2.23;;;1.20;;
19406;SDS011;9839;53.364;-1.204;2023-11-22T11:16:17;1.73;;;0.80;;
19406;SDS011;9839;53.364;-1.204;2023-11-22T11:18:43;2.53;;;0.90;;
19406;SDS011;9839;53.364;-1.204;2023-11-22T11:21:09;1.20;;;0.87;;
19406;SDS011;9839;53.364;-1.204;2023-11-22T11:23:38;3.33;;;1.50;;
19406;SDS011;9839;53.364;-1.204;2023-11-22T11:26:14;3.07;;;1.40;;
19406;SDS011;9839;53.364;-1.204;2023-11-22T11:28:46;3.30;;;1.50;;
19406;SDS011;9839;53.364;-1.204;2023-11-22T11:31:14;2.30;;;1.10;;
19406;SDS011;9839;53.364;-1.204;2023-11-22T11:36:31;5.50;;;1.50;;
19406;SDS011;9839;53.364;-1.204;2023-11-22T11:39:01;4.10;;;1.77;;
19406;SDS011;9839;53.364;-1.204;2023-11-22T11:41:34;2.40;;;1.70;;
19406;SDS011;9839;53.364;-1.204;2023-11-22T11:44:04;4.13;;;1.93;;
19406;SDS011;9839;53.364;-1.204;2023-11-22T11:46:32;3.37;;;2.07;;
19406;SDS011;9839;53.364;-1.204;2023-11-22T11:48:58;5.80;;;2.60;;
19406;SDS011;9839;53.364;-1.204;2023-11-22T11:51:25;6.33;;;3.63;;
19406;SDS011;9839;53.364;-1.204;2023-11-22T11:53:52;9.63;;;3.90;;
19406;SDS011;9839;53.364;-1.204;2023-11-22T11:56:19;7.43;;;3.67;;
19406;SDS011;9839;53.364;-1.204;2023-11-22T11:58:45;9.13;;;3.90;;
19406;SDS011;9839;53.364;-1.204;2023-11-22T12:01:18;6.07;;;3.60;;
19406;SDS011;9839;53.364;-1.204;2023-11-22T12:03:48;6.07;;;3.83;;
19406;SDS011;9839;53.364;-1.204;2023-11-22T12:06:14;9.07;;;4.57;;
19406;SDS011;9839;53.364;-1.204;2023-11-22T12:08:40;13.40;;;4.87;;
19406;SDS011;9839;53.364;-1.204;2023-11-22T12:11:06;7.87;;;5.27;;
19406;SDS011;9839;53.364;-1.204;2023-11-22T12:13:32;8.20;;;5.83;;
19406;SDS011;9839;53.364;-1.204;2023-11-22T12:15:59;8.43;;;5.33;;
19406;SDS011;9839;53.364;-1.204;2023-11-22T12:18:28;9.20;;;5.97;;
19406;SDS011;9839;53.364;-1.204;2023-11-22T12:20:57;8.53;;;5.93;;
19406;SDS011;9839;53.364;-1.204;2023-11-22T12:23:26;9.90;;;6.00;;
19406;SDS011;9839;53.364;-1.204;2023-11-22T12:25:56;8.13;;;5.30;;
19406;SDS011;9839;53.364;-1.204;2023-11-22T12:28:31;6.87;;;5.20;;
19406;SDS011;9839;53.364;-1.204;2023-11-22T12:31:12;9.40;;;5.47;;
19406;SDS011;9839;53.364;-1.204;2023-11-22T12:33:38;12.23;;;6.33;;
19406;SDS011;9839;53.364;-1.204;2023-11-22T12:36:06;7.30;;;5.40;;
19406;SDS011;9839;53.364;-1.204;2023-11-22T12:38:34;11.07;;;5.40;;
19406;SDS011;9839;53.364;-1.204;2023-11-22T12:41:03;7.70;;;5.57;;
19406;SDS011;9839;53.364;-1.204;2023-11-22T12:43:29;9.40;;;5.43;;
19406;SDS011;9839;53.364;-1.204;2023-11-22T12:46:05;8.20;;;5.27;;
19406;SDS011;9839;53.364;-1.204;2023-11-22T12:48:32;10.07;;;5.90;;
19406;SDS011;9839;53.364;-1.204;2023-11-22T12:50:58;7.60;;;5.60;;
19406;SDS011;9839;53.364;-1.204;2023-11-22T12:53:24;7.23;;;5.43;;
19406;SDS011;9839;53.364;-1.204;2023-11-22T12:55:53;8.27;;;5.63;;
19406;SDS011;9839;53.364;-1.204;2023-11-22T12:58:20;8.00;;;6.07;;
19406;SDS011;9839;53.364;-1.204;2023-11-22T13:00:47;9.07;;;6.07;;
19406;SDS011;9839;53.364;-1.204;2023-11-22T13:03:14;9.10;;;5.83;;
19406;SDS011;9839;53.364;-1.204;2023-11-22T13:05:40;10.80;;;5.80;;
19406;SDS011;9839;53.364;-1.204;2023-11-22T13:08:10;9.57;;;5.33;;
19406;SDS011;9839;53.364;-1.204;2023-11-22T13:10:38;10.10;;;6.23;;
19406;SDS011;9839;53.364;-1.204;2023-11-22T13:13:18;6.83;;;5.27;;
19406;SDS011;9839;53.364;-1.204;2023-11-22T13:15:44;8.77;;;4.97;;
19406;SDS011;9839;53.364;-1.204;2023-11-22T13:18:10;7.20;;;3.80;;
19406;SDS011;9839;53.364;-1.204;2023-11-22T13:20:36;6.00;;;3.80;;
19406;SDS011;9839;53.364;-1.204;2023-11-22T13:23:03;8.93;;;3.70;;
19406;SDS011;9839;53.364;-1.204;2023-11-22T13:25:29;4.00;;;2.60;;
19406;SDS011;9839;53.364;-1.204;2023-11-22T13:27:54;3.03;;;2.30;;
19406;SDS011;9839;53.364;-1.204;2023-11-22T13:30:21;3.20;;;2.23;;
19406;SDS011;9839;53.364;-1.204;2023-11-22T13:32:54;3.13;;;2.40;;
19406;SDS011;9839;53.364;-1.204;2023-11-22T13:35:26;9.00;;;2.27;;
19406;SDS011;9839;53.364;-1.204;2023-11-22T13:37:56;2.30;;;2.00;;
19406;SDS011;9839;53.364;-1.204;2023-11-22T13:40:23;4.13;;;2.23;;
19406;SDS011;9839;53.364;-1.204;2023-11-22T13:42:51;4.97;;;2.27;;
19406;SDS011;9839;53.364;-1.204;2023-11-22T13:45:19;3.00;;;2.07;;
19406;SDS011;9839;53.364;-1.204;2023-11-22T13:47:46;3.00;;;2.17;;
19406;SDS011;9839;53.364;-1.204;2023-11-22T13:50:13;4.00;;;2.10;;
19406;SDS011;9839;53.364;-1.204;2023-11-22T13:52:46;2.73;;;1.53;;
19406;SDS011;9839;53.364;-1.204;2023-11-22T13:55:13;4.03;;;1.47;;
19406;SDS011;9839;53.364;-1.204;2023-11-22T13:57:40;1.47;;;1.20;;
19406;SDS011;9839;53.364;-1.204;2023-11-22T14:00:06;3.37;;;1.10;;
19406;SDS011;9839;53.364;-1.204;2023-11-22T14:03:01;3.47;;;1.20;;
19406;SDS011;9839;53.364;-1.204;2023-11-22T14:05:36;2.80;;;1.10;;
19406;SDS011;9839;53.364;-1.204;2023-11-22T14:08:03;2.80;;;0.97;;
19406;SDS011;9839;53.364;-1.204;2023-11-22T14:10:31;1.53;;;0.90;;
19406;SDS011;9839;53.364;-1.204;2023-11-22T14:12:56;1.53;;;0.83;;
19406;SDS011;9839;53.364;-1.204;2023-11-22T14:15:27;3.63;;;1.03;;
19406;SDS011;9839;53.364;-1.204;2023-11-22T14:17:56;4.40;;;0.63;;
19406;SDS011;9839;53.364;-1.204;2023-11-22T14:20:21;2.47;;;0.87;;
19406;SDS011;9839;53.364;-1.204;2023-11-22T14:22:47;0.57;;;0.40;;
19406;SDS011;9839;53.364;-1.204;2023-11-22T14:25:13;0.93;;;0.57;;
19406;SDS011;9839;53.364;-1.204;2023-11-22T14:27:41;1.80;;;0.60;;
19406;SDS011;9839;53.364;-1.204;2023-11-22T14:30:08;1.07;;;0.70;;
19406;SDS011;9839;53.364;-1.204;2023-11-22T14:32:36;2.50;;;0.73;;
19406;SDS011;9839;53.364;-1.204;2023-11-22T14:35:05;3.13;;;0.60;;
19406;SDS011;9839;53.364;-1.204;2023-11-22T14:37:33;6.10;;;0.50;;
19406;SDS011;9839;53.364;-1.204;2023-11-22T14:39:59;2.13;;;0.70;;
19406;SDS011;9839;53.364;-1.204;2023-11-22T14:42:25;0.73;;;0.50;;
19406;SDS011;9839;53.364;-1.204;2023-11-22T14:44:51;3.47;;;0.80;;